sensor_id;sensor_type;location;lat;lon;timestamp;P1;durP1;ratioP1;P2;durP2;ratioP2
33403;SDS011;19751;40.274;18.268;2023-04-29T00:00:37;10.70;;;5.88;;
33403;SDS011;19751;40.274;18.268;2023-04-29T00:03:02;9.05;;;6.28;;
33403;SDS011;19751;40.274;18.268;2023-04-29T00:05:28;8.10;;;6.13;;
33403;SDS011;19751;40.274;18.268;2023-04-29T00:07:53;11.85;;;6.78;;
33403;SDS011;19751;40.274;18.268;2023-04-29T00:10:19;11.77;;;6.07;;
33403;SDS011;19751;40.274;18.268;2023-04-29T00:12:44;11.50;;;6.10;;
33403;SDS011;19751;40.274;18.268;2023-04-29T00:15:10;11.02;;;6.30;;
33403;SDS011;19751;40.274;18.268;2023-04-29T00:17:35;8.02;;;6.05;;
33403;SDS011;19751;40.274;18.268;2023-04-29T00:20:01;12.77;;;6.38;;
33403;SDS011;19751;40.274;18.268;2023-04-29T00:22:27;10.00;;;5.68;;
33403;SDS011;19751;40.274;18.268;2023-04-29T00:24:53;9.88;;;5.63;;
33403;SDS011;19751;40.274;18.268;2023-04-29T00:27:18;10.07;;;5.82;;
33403;SDS011;19751;40.274;18.268;2023-04-29T00:29:44;8.18;;;5.75;;
33403;SDS011;19751;40.274;18.268;2023-04-29T00:32:09;8.75;;;5.85;;
33403;SDS011;19751;40.274;18.268;2023-04-29T00:34:35;8.48;;;6.00;;
33403;SDS011;19751;40.274;18.268;2023-04-29T00:37:00;8.13;;;5.47;;
33403;SDS011;19751;40.274;18.268;2023-04-29T00:39:26;8.82;;;5.25;;
33403;SDS011;19751;40.274;18.268;2023-04-29T00:41:51;11.40;;;5.88;;
33403;SDS011;19751;40.274;18.268;2023-04-29T00:44:17;10.77;;;5.53;;
33403;SDS011;19751;40.274;18.268;2023-04-29T00:46:43;8.85;;;4.95;;
33403;SDS011;19751;40.274;18.268;2023-04-29T00:49:09;6.28;;;5.28;;
33403;SDS011;19751;40.274;18.268;2023-04-29T00:51:36;7.47;;;5.45;;
33403;SDS011;19751;40.274;18.268;2023-04-29T00:54:05;10.77;;;4.85;;
33403;SDS011;19751;40.274;18.268;2023-04-29T00:56:33;8.80;;;5.03;;
33403;SDS011;19751;40.274;18.268;2023-04-29T00:59:00;7.82;;;5.15;;
33403;SDS011;19751;40.274;18.268;2023-04-29T01:01:28;8.02;;;4.85;;
33403;SDS011;19751;40.274;18.268;2023-04-29T01:03:55;11.57;;;5.38;;
33403;SDS011;19751;40.274;18.268;2023-04-29T01:15:09;8.70;;;5.93;;
33403;SDS011;19751;40.274;18.268;2023-04-29T01:17:47;8.98;;;5.03;;
33403;SDS011;19751;40.274;18.268;2023-04-29T01:20:19;8.65;;;5.43;;
33403;SDS011;19751;40.274;18.268;2023-04-29T01:22:46;9.45;;;5.03;;
33403;SDS011;19751;40.274;18.268;2023-04-29T01:25:12;7.03;;;4.93;;
33403;SDS011;19751;40.274;18.268;2023-04-29T01:27:41;8.88;;;5.47;;
33403;SDS011;19751;40.274;18.268;2023-04-29T01:35:14;8.43;;;4.78;;
33403;SDS011;19751;40.274;18.268;2023-04-29T01:37:55;11.95;;;5.70;;
33403;SDS011;19751;40.274;18.268;2023-04-29T01:40:33;7.70;;;4.47;;
33403;SDS011;19751;40.274;18.268;2023-04-29T01:43:04;7.53;;;4.88;;
33403;SDS011;19751;40.274;18.268;2023-04-29T01:45:35;7.28;;;4.72;;
33403;SDS011;19751;40.274;18.268;2023-04-29T01:48:05;9.60;;;5.32;;
33403;SDS011;19751;40.274;18.268;2023-04-29T01:50:32;6.57;;;4.47;;
33403;SDS011;19751;40.274;18.268;2023-04-29T01:52:57;9.32;;;5.35;;
33403;SDS011;19751;40.274;18.268;2023-04-29T01:55:23;7.40;;;4.93;;
33403;SDS011;19751;40.274;18.268;2023-04-29T01:57:49;9.20;;;4.97;;
33403;SDS011;19751;40.274;18.268;2023-04-29T02:00:15;8.10;;;4.63;;
33403;SDS011;19751;40.274;18.268;2023-04-29T02:02:40;7.70;;;4.82;;
33403;SDS011;19751;40.274;18.268;2023-04-29T02:05:06;7.10;;;5.22;;
33403;SDS011;19751;40.274;18.268;2023-04-29T02:07:31;6.70;;;5.10;;
33403;SDS011;19751;40.274;18.268;2023-04-29T02:09:57;7.88;;;4.93;;
33403;SDS011;19751;40.274;18.268;2023-04-29T02:12:23;6.15;;;4.45;;
33403;SDS011;19751;40.274;18.268;2023-04-29T02:14:51;8.77;;;4.97;;
33403;SDS011;19751;40.274;18.268;2023-04-29T02:17:17;9.80;;;5.00;;
33403;SDS011;19751;40.274;18.268;2023-04-29T02:19:42;5.28;;;4.32;;
33403;SDS011;19751;40.274;18.268;2023-04-29T02:22:08;6.93;;;4.60;;
33403;SDS011;19751;40.274;18.268;2023-04-29T02:24:36;7.88;;;4.53;;
33403;SDS011;19751;40.274;18.268;2023-04-29T02:27:02;6.97;;;3.95;;
33403;SDS011;19751;40.274;18.268;2023-04-29T02:29:30;5.45;;;4.25;;
33403;SDS011;19751;40.274;18.268;2023-04-29T02:31:56;9.10;;;4.18;;
33403;SDS011;19751;40.274;18.268;2023-04-29T02:34:21;6.47;;;3.95;;
33403;SDS011;19751;40.274;18.268;2023-04-29T02:36:48;9.05;;;4.13;;
33403;SDS011;19751;40.274;18.268;2023-04-29T02:39:14;5.57;;;3.97;;
33403;SDS011;19751;40.274;18.268;2023-04-29T02:41:39;6.65;;;3.53;;
33403;SDS011;19751;40.274;18.268;2023-04-29T02:44:06;6.05;;;3.80;;
33403;SDS011;19751;40.274;18.268;2023-04-29T02:46:32;5.45;;;4.18;;
33403;SDS011;19751;40.274;18.268;2023-04-29T02:48:59;5.03;;;3.33;;
33403;SDS011;19751;40.274;18.268;2023-04-29T02:51:26;6.15;;;3.38;;
33403;SDS011;19751;40.274;18.268;2023-04-29T02:53:52;3.83;;;3.35;;
33403;SDS011;19751;40.274;18.268;2023-04-29T02:56:17;8.43;;;3.55;;
33403;SDS011;19751;40.274;18.268;2023-04-29T02:58:43;5.20;;;3.40;;
33403;SDS011;19751;40.274;18.268;2023-04-29T03:01:08;4.85;;;3.30;;
33403;SDS011;19751;40.274;18.268;2023-04-29T03:03:34;6.43;;;3.35;;
33403;SDS011;19751;40.274;18.268;2023-04-29T03:05:59;3.50;;;3.05;;
33403;SDS011;19751;40.274;18.268;2023-04-29T03:08:25;6.03;;;3.10;;
33403;SDS011;19751;40.274;18.268;2023-04-29T03:10:51;2.90;;;2.28;;
33403;SDS011;19751;40.274;18.268;2023-04-29T03:13:16;3.25;;;2.40;;
33403;SDS011;19751;40.274;18.268;2023-04-29T03:15:42;4.75;;;3.17;;
33403;SDS011;19751;40.274;18.268;2023-04-29T03:18:08;5.45;;;3.05;;
33403;SDS011;19751;40.274;18.268;2023-04-29T03:20:33;8.13;;;4.15;;
33403;SDS011;19751;40.274;18.268;2023-04-29T03:22:59;3.72;;;3.30;;
33403;SDS011;19751;40.274;18.268;2023-04-29T03:25:25;5.40;;;2.28;;
33403;SDS011;19751;40.274;18.268;2023-04-29T03:27:50;4.15;;;2.58;;
33403;SDS011;19751;40.274;18.268;2023-04-29T03:30:16;8.73;;;4.13;;
33403;SDS011;19751;40.274;18.268;2023-04-29T03:32:41;4.65;;;3.20;;
33403;SDS011;19751;40.274;18.268;2023-04-29T03:35:07;5.32;;;3.70;;
33403;SDS011;19751;40.274;18.268;2023-04-29T03:37:33;4.00;;;2.38;;
33403;SDS011;19751;40.274;18.268;2023-04-29T03:39:58;5.32;;;2.53;;
33403;SDS011;19751;40.274;18.268;2023-04-29T03:42:24;4.88;;;2.90;;
33403;SDS011;19751;40.274;18.268;2023-04-29T03:44:49;5.55;;;2.90;;
33403;SDS011;19751;40.274;18.268;2023-04-29T03:47:15;3.65;;;3.03;;
33403;SDS011;19751;40.274;18.268;2023-04-29T03:49:40;4.95;;;2.58;;
33403;SDS011;19751;40.274;18.268;2023-04-29T03:52:06;3.50;;;2.70;;
33403;SDS011;19751;40.274;18.268;2023-04-29T03:54:31;4.32;;;2.80;;
33403;SDS011;19751;40.274;18.268;2023-04-29T03:56:57;4.78;;;3.00;;
33403;SDS011;19751;40.274;18.268;2023-04-29T03:59:22;4.53;;;3.25;;
33403;SDS011;19751;40.274;18.268;2023-04-29T04:01:48;5.03;;;3.80;;
33403;SDS011;19751;40.274;18.268;2023-04-29T04:04:13;5.88;;;3.17;;
33403;SDS011;19751;40.274;18.268;2023-04-29T04:06:39;3.97;;;3.20;;
33403;SDS011;19751;40.274;18.268;2023-04-29T04:09:05;6.53;;;3.70;;
33403;SDS011;19751;40.274;18.268;2023-04-29T04:11:30;5.13;;;2.95;;
33403;SDS011;19751;40.274;18.268;2023-04-29T04:13:56;6.38;;;4.10;;
33403;SDS011;19751;40.274;18.268;2023-04-29T04:16:21;5.85;;;3.65;;
33403;SDS011;19751;40.274;18.268;2023-04-29T04:18:47;9.75;;;3.50;;
33403;SDS011;19751;40.274;18.268;2023-04-29T04:21:12;5.07;;;3.60;;
33403;SDS011;19751;40.274;18.268;2023-04-29T04:23:38;4.88;;;2.60;;
33403;SDS011;19751;40.274;18.268;2023-04-29T04:26:08;4.18;;;2.92;;
33403;SDS011;19751;40.274;18.268;2023-04-29T04:28:33;3.78;;;2.92;;
33403;SDS011;19751;40.274;18.268;2023-04-29T04:30:59;3.72;;;2.88;;
33403;SDS011;19751;40.274;18.268;2023-04-29T04:33:24;4.00;;;2.33;;
33403;SDS011;19751;40.274;18.268;2023-04-29T04:35:51;5.55;;;2.58;;
33403;SDS011;19751;40.274;18.268;2023-04-29T04:38:16;6.47;;;3.28;;
33403;SDS011;19751;40.274;18.268;2023-04-29T04:40:42;4.40;;;2.83;;
33403;SDS011;19751;40.274;18.268;2023-04-29T04:43:08;2.88;;;2.35;;
33403;SDS011;19751;40.274;18.268;2023-04-29T04:45:34;4.25;;;2.60;;
33403;SDS011;19751;40.274;18.268;2023-04-29T04:48:01;4.95;;;2.17;;
33403;SDS011;19751;40.274;18.268;2023-04-29T04:50:27;3.42;;;2.45;;
33403;SDS011;19751;40.274;18.268;2023-04-29T04:52:54;5.05;;;2.72;;
33403;SDS011;19751;40.274;18.268;2023-04-29T04:55:20;4.20;;;3.13;;
33403;SDS011;19751;40.274;18.268;2023-04-29T04:57:46;7.18;;;3.20;;
33403;SDS011;19751;40.274;18.268;2023-04-29T05:00:11;5.85;;;3.15;;
33403;SDS011;19751;40.274;18.268;2023-04-29T05:02:37;6.05;;;3.53;;
33403;SDS011;19751;40.274;18.268;2023-04-29T05:05:03;7.63;;;3.78;;
33403;SDS011;19751;40.274;18.268;2023-04-29T05:07:29;6.15;;;3.47;;
33403;SDS011;19751;40.274;18.268;2023-04-29T05:09:54;6.60;;;3.95;;
33403;SDS011;19751;40.274;18.268;2023-04-29T05:12:20;5.78;;;4.00;;
33403;SDS011;19751;40.274;18.268;2023-04-29T05:14:45;9.68;;;4.60;;
33403;SDS011;19751;40.274;18.268;2023-04-29T05:17:11;9.93;;;5.40;;
33403;SDS011;19751;40.274;18.268;2023-04-29T05:19:36;5.07;;;4.28;;
33403;SDS011;19751;40.274;18.268;2023-04-29T05:22:02;5.60;;;4.35;;
33403;SDS011;19751;40.274;18.268;2023-04-29T05:24:27;5.18;;;4.15;;
33403;SDS011;19751;40.274;18.268;2023-04-29T05:26:53;6.88;;;3.95;;
33403;SDS011;19751;40.274;18.268;2023-04-29T05:29:19;5.57;;;4.95;;
33403;SDS011;19751;40.274;18.268;2023-04-29T05:31:44;7.15;;;5.72;;
33403;SDS011;19751;40.274;18.268;2023-04-29T05:34:10;16.52;;;6.35;;
33403;SDS011;19751;40.274;18.268;2023-04-29T05:36:35;7.40;;;3.67;;
33403;SDS011;19751;40.274;18.268;2023-04-29T05:39:01;9.38;;;3.97;;
33403;SDS011;19751;40.274;18.268;2023-04-29T05:41:27;7.45;;;3.65;;
33403;SDS011;19751;40.274;18.268;2023-04-29T05:43:52;7.07;;;3.72;;
33403;SDS011;19751;40.274;18.268;2023-04-29T05:46:18;5.50;;;3.55;;
33403;SDS011;19751;40.274;18.268;2023-04-29T05:48:44;8.25;;;3.67;;
33403;SDS011;19751;40.274;18.268;2023-04-29T05:51:10;4.47;;;3.42;;
33403;SDS011;19751;40.274;18.268;2023-04-29T05:53:36;5.07;;;2.97;;
33403;SDS011;19751;40.274;18.268;2023-04-29T05:56:02;3.53;;;2.83;;
33403;SDS011;19751;40.274;18.268;2023-04-29T05:58:32;4.90;;;3.03;;
33403;SDS011;19751;40.274;18.268;2023-04-29T06:00:57;6.93;;;4.30;;
33403;SDS011;19751;40.274;18.268;2023-04-29T06:03:23;8.95;;;3.63;;
33403;SDS011;19751;40.274;18.268;2023-04-29T06:05:48;6.57;;;3.03;;
33403;SDS011;19751;40.274;18.268;2023-04-29T06:08:14;3.78;;;2.88;;
33403;SDS011;19751;40.274;18.268;2023-04-29T06:10:39;4.22;;;2.78;;
33403;SDS011;19751;40.274;18.268;2023-04-29T06:13:05;8.40;;;1.98;;
33403;SDS011;19751;40.274;18.268;2023-04-29T06:15:30;2.65;;;1.60;;
33403;SDS011;19751;40.274;18.268;2023-04-29T06:17:56;4.03;;;1.88;;
33403;SDS011;19751;40.274;18.268;2023-04-29T06:20:22;3.53;;;1.80;;
33403;SDS011;19751;40.274;18.268;2023-04-29T06:22:47;4.30;;;2.00;;
33403;SDS011;19751;40.274;18.268;2023-04-29T06:25:13;5.43;;;2.42;;
33403;SDS011;19751;40.274;18.268;2023-04-29T06:27:39;5.07;;;2.95;;
33403;SDS011;19751;40.274;18.268;2023-04-29T06:30:04;10.88;;;3.60;;
33403;SDS011;19751;40.274;18.268;2023-04-29T06:32:30;8.27;;;2.72;;
33403;SDS011;19751;40.274;18.268;2023-04-29T06:34:56;10.52;;;2.40;;
33403;SDS011;19751;40.274;18.268;2023-04-29T06:37:21;3.65;;;2.85;;
33403;SDS011;19751;40.274;18.268;2023-04-29T06:39:47;4.47;;;2.38;;
33403;SDS011;19751;40.274;18.268;2023-04-29T06:42:12;4.47;;;1.70;;
33403;SDS011;19751;40.274;18.268;2023-04-29T06:44:38;10.52;;;2.95;;
33403;SDS011;19751;40.274;18.268;2023-04-29T06:47:03;3.65;;;1.90;;
33403;SDS011;19751;40.274;18.268;2023-04-29T06:49:29;1.95;;;1.52;;
33403;SDS011;19751;40.274;18.268;2023-04-29T06:51:54;4.18;;;2.30;;
33403;SDS011;19751;40.274;18.268;2023-04-29T06:54:20;6.38;;;1.63;;
33403;SDS011;19751;40.274;18.268;2023-04-29T06:56:45;4.63;;;2.08;;
33403;SDS011;19751;40.274;18.268;2023-04-29T06:59:12;6.03;;;1.83;;
33403;SDS011;19751;40.274;18.268;2023-04-29T07:01:39;7.10;;;1.83;;
33403;SDS011;19751;40.274;18.268;2023-04-29T07:04:04;2.92;;;1.40;;
33403;SDS011;19751;40.274;18.268;2023-04-29T07:06:30;3.95;;;1.75;;
33403;SDS011;19751;40.274;18.268;2023-04-29T07:08:55;2.42;;;1.67;;
33403;SDS011;19751;40.274;18.268;2023-04-29T07:11:21;3.03;;;1.88;;
33403;SDS011;19751;40.274;18.268;2023-04-29T07:13:48;2.00;;;1.65;;
33403;SDS011;19751;40.274;18.268;2023-04-29T07:16:15;8.90;;;1.95;;
33403;SDS011;19751;40.274;18.268;2023-04-29T07:18:43;1.98;;;1.42;;
33403;SDS011;19751;40.274;18.268;2023-04-29T07:21:09;2.95;;;1.40;;
33403;SDS011;19751;40.274;18.268;2023-04-29T07:23:34;3.05;;;1.45;;
33403;SDS011;19751;40.274;18.268;2023-04-29T07:26:09;3.90;;;1.42;;
33403;SDS011;19751;40.274;18.268;2023-04-29T07:28:36;4.20;;;1.65;;
33403;SDS011;19751;40.274;18.268;2023-04-29T07:31:01;13.98;;;4.13;;
33403;SDS011;19751;40.274;18.268;2023-04-29T07:33:27;4.85;;;2.63;;
33403;SDS011;19751;40.274;18.268;2023-04-29T07:35:52;2.17;;;1.58;;
33403;SDS011;19751;40.274;18.268;2023-04-29T07:38:18;3.53;;;2.38;;
33403;SDS011;19751;40.274;18.268;2023-04-29T07:40:45;8.15;;;2.25;;
33403;SDS011;19751;40.274;18.268;2023-04-29T07:43:10;4.82;;;1.95;;
33403;SDS011;19751;40.274;18.268;2023-04-29T07:45:37;5.28;;;1.75;;
33403;SDS011;19751;40.274;18.268;2023-04-29T07:48:04;2.65;;;1.30;;
33403;SDS011;19751;40.274;18.268;2023-04-29T07:50:32;3.95;;;1.83;;
33403;SDS011;19751;40.274;18.268;2023-04-29T07:52:58;1.38;;;1.13;;
33403;SDS011;19751;40.274;18.268;2023-04-29T07:55:26;4.35;;;1.35;;
33403;SDS011;19751;40.274;18.268;2023-04-29T07:57:54;1.70;;;1.33;;
33403;SDS011;19751;40.274;18.268;2023-04-29T08:00:20;4.70;;;1.25;;
33403;SDS011;19751;40.274;18.268;2023-04-29T08:02:49;3.60;;;1.63;;
33403;SDS011;19751;40.274;18.268;2023-04-29T08:05:16;3.75;;;1.70;;
33403;SDS011;19751;40.274;18.268;2023-04-29T08:07:41;6.03;;;1.70;;
33403;SDS011;19751;40.274;18.268;2023-04-29T08:10:07;5.40;;;1.95;;
33403;SDS011;19751;40.274;18.268;2023-04-29T08:12:33;2.00;;;1.35;;
33403;SDS011;19751;40.274;18.268;2023-04-29T08:14:58;2.70;;;1.20;;
33403;SDS011;19751;40.274;18.268;2023-04-29T08:17:24;3.83;;;1.77;;
33403;SDS011;19751;40.274;18.268;2023-04-29T08:19:49;3.15;;;1.55;;
33403;SDS011;19751;40.274;18.268;2023-04-29T08:22:15;3.03;;;1.42;;
33403;SDS011;19751;40.274;18.268;2023-04-29T08:24:40;1.90;;;1.45;;
33403;SDS011;19751;40.274;18.268;2023-04-29T08:27:07;2.50;;;1.27;;
33403;SDS011;19751;40.274;18.268;2023-04-29T08:29:32;3.47;;;1.52;;
33403;SDS011;19751;40.274;18.268;2023-04-29T08:31:58;4.53;;;1.85;;
33403;SDS011;19751;40.274;18.268;2023-04-29T08:34:24;2.80;;;1.20;;
33403;SDS011;19751;40.274;18.268;2023-04-29T08:36:50;5.90;;;2.75;;
33403;SDS011;19751;40.274;18.268;2023-04-29T08:39:16;2.92;;;1.20;;
33403;SDS011;19751;40.274;18.268;2023-04-29T08:41:41;3.10;;;0.93;;
33403;SDS011;19751;40.274;18.268;2023-04-29T08:44:09;3.15;;;1.30;;
33403;SDS011;19751;40.274;18.268;2023-04-29T08:46:36;2.42;;;1.48;;
33403;SDS011;19751;40.274;18.268;2023-04-29T08:49:02;2.38;;;1.25;;
33403;SDS011;19751;40.274;18.268;2023-04-29T08:51:28;3.35;;;1.10;;
33403;SDS011;19751;40.274;18.268;2023-04-29T08:53:56;2.03;;;1.35;;
33403;SDS011;19751;40.274;18.268;2023-04-29T08:56:21;4.03;;;1.50;;
33403;SDS011;19751;40.274;18.268;2023-04-29T08:58:48;5.50;;;1.30;;
33403;SDS011;19751;40.274;18.268;2023-04-29T09:01:18;4.47;;;1.50;;
33403;SDS011;19751;40.274;18.268;2023-04-29T09:03:49;6.65;;;1.60;;
33403;SDS011;19751;40.274;18.268;2023-04-29T09:06:26;6.38;;;2.00;;
33403;SDS011;19751;40.274;18.268;2023-04-29T09:08:51;7.07;;;1.83;;
33403;SDS011;19751;40.274;18.268;2023-04-29T09:11:17;3.40;;;1.50;;
33403;SDS011;19751;40.274;18.268;2023-04-29T09:13:44;7.30;;;1.83;;
33403;SDS011;19751;40.274;18.268;2023-04-29T09:16:12;3.53;;;1.52;;
33403;SDS011;19751;40.274;18.268;2023-04-29T09:18:42;8.57;;;5.70;;
33403;SDS011;19751;40.274;18.268;2023-04-29T09:21:19;4.57;;;2.13;;
33403;SDS011;19751;40.274;18.268;2023-04-29T09:23:52;4.03;;;1.45;;
33403;SDS011;19751;40.274;18.268;2023-04-29T09:26:19;6.45;;;2.00;;
33403;SDS011;19751;40.274;18.268;2023-04-29T09:28:46;27.25;;;4.53;;
33403;SDS011;19751;40.274;18.268;2023-04-29T09:31:26;6.53;;;2.10;;
33403;SDS011;19751;40.274;18.268;2023-04-29T09:33:55;4.03;;;2.40;;
33403;SDS011;19751;40.274;18.268;2023-04-29T09:36:42;3.00;;;1.42;;
33403;SDS011;19751;40.274;18.268;2023-04-29T09:39:15;5.25;;;2.53;;
33403;SDS011;19751;40.274;18.268;2023-04-29T09:44:17;5.57;;;2.42;;
33403;SDS011;19751;40.274;18.268;2023-04-29T09:46:43;2.70;;;2.20;;
33403;SDS011;19751;40.274;18.268;2023-04-29T09:49:23;5.93;;;2.50;;
33403;SDS011;19751;40.274;18.268;2023-04-29T09:51:57;3.45;;;1.90;;
33403;SDS011;19751;40.274;18.268;2023-04-29T09:54:24;2.15;;;1.77;;
33403;SDS011;19751;40.274;18.268;2023-04-29T09:56:53;4.28;;;2.33;;
33403;SDS011;19751;40.274;18.268;2023-04-29T09:59:20;5.10;;;3.08;;
33403;SDS011;19751;40.274;18.268;2023-04-29T10:01:47;9.20;;;2.60;;
33403;SDS011;19751;40.274;18.268;2023-04-29T10:04:14;5.75;;;2.72;;
33403;SDS011;19751;40.274;18.268;2023-04-29T10:06:41;3.75;;;3.38;;
33403;SDS011;19751;40.274;18.268;2023-04-29T10:09:10;5.28;;;3.15;;
33403;SDS011;19751;40.274;18.268;2023-04-29T10:11:42;10.68;;;4.32;;
33403;SDS011;19751;40.274;18.268;2023-04-29T10:14:28;8.23;;;3.30;;
33403;SDS011;19751;40.274;18.268;2023-04-29T10:17:01;8.55;;;3.53;;
33403;SDS011;19751;40.274;18.268;2023-04-29T10:19:46;6.15;;;2.67;;
33403;SDS011;19751;40.274;18.268;2023-04-29T10:22:21;4.28;;;2.95;;
33403;SDS011;19751;40.274;18.268;2023-04-29T10:25:07;3.45;;;3.00;;
33403;SDS011;19751;40.274;18.268;2023-04-29T10:27:35;9.02;;;3.13;;
33403;SDS011;19751;40.274;18.268;2023-04-29T10:30:01;6.45;;;3.05;;
33403;SDS011;19751;40.274;18.268;2023-04-29T10:32:29;5.07;;;2.60;;
33403;SDS011;19751;40.274;18.268;2023-04-29T10:34:56;5.63;;;2.78;;
33403;SDS011;19751;40.274;18.268;2023-04-29T10:37:23;7.20;;;2.67;;
33403;SDS011;19751;40.274;18.268;2023-04-29T10:40:00;3.97;;;2.20;;
33403;SDS011;19751;40.274;18.268;2023-04-29T10:53:12;3.17;;;2.30;;
33403;SDS011;19751;40.274;18.268;2023-04-29T10:55:38;4.00;;;2.28;;
33403;SDS011;19751;40.274;18.268;2023-04-29T10:58:05;4.72;;;2.80;;
33403;SDS011;19751;40.274;18.268;2023-04-29T11:01:05;3.38;;;2.42;;
33403;SDS011;19751;40.274;18.268;2023-04-29T11:06:36;2.70;;;2.10;;
33403;SDS011;19751;40.274;18.268;2023-04-29T11:14:14;3.33;;;1.60;;
33403;SDS011;19751;40.274;18.268;2023-04-29T11:16:45;4.45;;;1.67;;
33403;SDS011;19751;40.274;18.268;2023-04-29T11:19:14;3.58;;;1.80;;
33403;SDS011;19751;40.274;18.268;2023-04-29T11:21:41;4.90;;;1.58;;
33403;SDS011;19751;40.274;18.268;2023-04-29T11:24:09;3.85;;;1.63;;
33403;SDS011;19751;40.274;18.268;2023-04-29T11:26:36;3.03;;;1.77;;
33403;SDS011;19751;40.274;18.268;2023-04-29T11:29:03;4.25;;;1.88;;
33403;SDS011;19751;40.274;18.268;2023-04-29T11:31:30;4.18;;;1.95;;
33403;SDS011;19751;40.274;18.268;2023-04-29T11:33:56;3.38;;;1.98;;
33403;SDS011;19751;40.274;18.268;2023-04-29T11:36:23;3.83;;;1.30;;
33403;SDS011;19751;40.274;18.268;2023-04-29T11:38:49;1.42;;;1.10;;
33403;SDS011;19751;40.274;18.268;2023-04-29T11:41:15;2.42;;;1.40;;
33403;SDS011;19751;40.274;18.268;2023-04-29T11:43:40;5.88;;;1.88;;
33403;SDS011;19751;40.274;18.268;2023-04-29T11:46:11;3.83;;;1.50;;
33403;SDS011;19751;40.274;18.268;2023-04-29T11:48:44;8.05;;;1.85;;
33403;SDS011;19751;40.274;18.268;2023-04-29T11:51:11;4.13;;;1.50;;
33403;SDS011;19751;40.274;18.268;2023-04-29T11:53:36;2.55;;;1.50;;
33403;SDS011;19751;40.274;18.268;2023-04-29T11:56:02;3.47;;;1.48;;
33403;SDS011;19751;40.274;18.268;2023-04-29T11:58:27;2.92;;;1.30;;
33403;SDS011;19751;40.274;18.268;2023-04-29T12:00:53;2.55;;;1.33;;
33403;SDS011;19751;40.274;18.268;2023-04-29T12:03:19;3.88;;;1.50;;
33403;SDS011;19751;40.274;18.268;2023-04-29T12:05:46;1.65;;;1.52;;
33403;SDS011;19751;40.274;18.268;2023-04-29T12:08:12;2.38;;;1.38;;
33403;SDS011;19751;40.274;18.268;2023-04-29T12:10:38;3.13;;;1.52;;
33403;SDS011;19751;40.274;18.268;2023-04-29T12:13:03;4.32;;;1.23;;
33403;SDS011;19751;40.274;18.268;2023-04-29T12:15:29;2.38;;;1.45;;
33403;SDS011;19751;40.274;18.268;2023-04-29T12:17:55;3.58;;;1.27;;
33403;SDS011;19751;40.274;18.268;2023-04-29T12:20:21;2.95;;;1.27;;
33403;SDS011;19751;40.274;18.268;2023-04-29T12:22:46;3.17;;;1.52;;
33403;SDS011;19751;40.274;18.268;2023-04-29T12:25:13;5.07;;;1.30;;
33403;SDS011;19751;40.274;18.268;2023-04-29T12:27:40;3.80;;;1.30;;
33403;SDS011;19751;40.274;18.268;2023-04-29T12:30:07;3.00;;;1.10;;
33403;SDS011;19751;40.274;18.268;2023-04-29T12:32:34;3.75;;;1.17;;
33403;SDS011;19751;40.274;18.268;2023-04-29T12:35:00;2.08;;;1.30;;
33403;SDS011;19751;40.274;18.268;2023-04-29T12:37:26;6.20;;;2.15;;
33403;SDS011;19751;40.274;18.268;2023-04-29T12:39:53;3.67;;;1.13;;
33403;SDS011;19751;40.274;18.268;2023-04-29T12:42:19;2.22;;;1.13;;
33403;SDS011;19751;40.274;18.268;2023-04-29T12:44:45;1.95;;;1.58;;
33403;SDS011;19751;40.274;18.268;2023-04-29T12:47:14;1.75;;;1.13;;
33403;SDS011;19751;40.274;18.268;2023-04-29T12:49:41;1.25;;;1.08;;
33403;SDS011;19751;40.274;18.268;2023-04-29T12:52:10;3.10;;;1.80;;
33403;SDS011;19751;40.274;18.268;2023-04-29T12:54:36;2.80;;;0.95;;
33403;SDS011;19751;40.274;18.268;2023-04-29T12:57:05;1.92;;;0.98;;
33403;SDS011;19751;40.274;18.268;2023-04-29T12:59:30;2.22;;;0.93;;
33403;SDS011;19751;40.274;18.268;2023-04-29T13:01:56;1.83;;;0.95;;
33403;SDS011;19751;40.274;18.268;2023-04-29T13:04:21;1.58;;;1.00;;
33403;SDS011;19751;40.274;18.268;2023-04-29T13:06:47;3.17;;;1.30;;
33403;SDS011;19751;40.274;18.268;2023-04-29T13:09:12;2.65;;;1.30;;
33403;SDS011;19751;40.274;18.268;2023-04-29T13:11:38;2.47;;;1.00;;
33403;SDS011;19751;40.274;18.268;2023-04-29T13:14:04;2.20;;;1.10;;
33403;SDS011;19751;40.274;18.268;2023-04-29T13:16:31;2.65;;;1.35;;
33403;SDS011;19751;40.274;18.268;2023-04-29T13:18:57;2.40;;;1.38;;
33403;SDS011;19751;40.274;18.268;2023-04-29T13:21:23;7.47;;;1.20;;
33403;SDS011;19751;40.274;18.268;2023-04-29T13:23:49;2.45;;;1.00;;
33403;SDS011;19751;40.274;18.268;2023-04-29T13:26:16;1.50;;;1.00;;
33403;SDS011;19751;40.274;18.268;2023-04-29T13:28:42;2.80;;;1.00;;
33403;SDS011;19751;40.274;18.268;2023-04-29T13:31:08;1.67;;;1.08;;
33403;SDS011;19751;40.274;18.268;2023-04-29T13:33:33;2.15;;;0.95;;
33403;SDS011;19751;40.274;18.268;2023-04-29T13:35:58;2.28;;;1.35;;
33403;SDS011;19751;40.274;18.268;2023-04-29T13:38:24;2.65;;;1.20;;
33403;SDS011;19751;40.274;18.268;2023-04-29T13:40:50;3.47;;;1.20;;
33403;SDS011;19751;40.274;18.268;2023-04-29T13:43:16;4.22;;;1.17;;
33403;SDS011;19751;40.274;18.268;2023-04-29T13:45:41;1.17;;;0.95;;
33403;SDS011;19751;40.274;18.268;2023-04-29T13:48:07;2.67;;;1.05;;
33403;SDS011;19751;40.274;18.268;2023-04-29T13:50:32;2.78;;;0.80;;
33403;SDS011;19751;40.274;18.268;2023-04-29T13:52:58;1.77;;;1.00;;
33403;SDS011;19751;40.274;18.268;2023-04-29T13:55:23;2.97;;;0.80;;
33403;SDS011;19751;40.274;18.268;2023-04-29T13:57:49;4.45;;;1.30;;
33403;SDS011;19751;40.274;18.268;2023-04-29T14:00:15;1.50;;;0.80;;
33403;SDS011;19751;40.274;18.268;2023-04-29T14:02:41;3.53;;;1.20;;
33403;SDS011;19751;40.274;18.268;2023-04-29T14:05:07;2.35;;;1.33;;
33403;SDS011;19751;40.274;18.268;2023-04-29T14:07:34;5.25;;;1.38;;
33403;SDS011;19751;40.274;18.268;2023-04-29T14:10:00;2.03;;;1.10;;
33403;SDS011;19751;40.274;18.268;2023-04-29T14:12:26;1.38;;;0.90;;
33403;SDS011;19751;40.274;18.268;2023-04-29T14:14:51;2.08;;;1.23;;
33403;SDS011;19751;40.274;18.268;2023-04-29T14:17:17;1.75;;;1.08;;
33403;SDS011;19751;40.274;18.268;2023-04-29T14:19:43;5.28;;;1.20;;
33403;SDS011;19751;40.274;18.268;2023-04-29T14:22:08;2.03;;;1.20;;
33403;SDS011;19751;40.274;18.268;2023-04-29T14:24:34;3.10;;;1.17;;
33403;SDS011;19751;40.274;18.268;2023-04-29T14:27:00;1.42;;;0.90;;
33403;SDS011;19751;40.274;18.268;2023-04-29T14:29:26;3.05;;;1.08;;
33403;SDS011;19751;40.274;18.268;2023-04-29T14:31:52;2.45;;;1.40;;
33403;SDS011;19751;40.274;18.268;2023-04-29T14:34:17;3.13;;;1.45;;
33403;SDS011;19751;40.274;18.268;2023-04-29T14:36:44;3.50;;;1.27;;
33403;SDS011;19751;40.274;18.268;2023-04-29T14:39:10;1.58;;;1.10;;
33403;SDS011;19751;40.274;18.268;2023-04-29T14:41:36;2.13;;;1.08;;
33403;SDS011;19751;40.274;18.268;2023-04-29T14:44:02;2.00;;;1.25;;
33403;SDS011;19751;40.274;18.268;2023-04-29T14:46:27;2.80;;;1.20;;
33403;SDS011;19751;40.274;18.268;2023-04-29T14:48:53;2.83;;;1.30;;
33403;SDS011;19751;40.274;18.268;2023-04-29T14:51:19;5.63;;;1.73;;
33403;SDS011;19751;40.274;18.268;2023-04-29T14:53:44;1.70;;;1.08;;
33403;SDS011;19751;40.274;18.268;2023-04-29T14:56:10;4.78;;;1.23;;
33403;SDS011;19751;40.274;18.268;2023-04-29T14:58:36;5.78;;;1.58;;
33403;SDS011;19751;40.274;18.268;2023-04-29T15:01:01;3.88;;;2.45;;
33403;SDS011;19751;40.274;18.268;2023-04-29T15:03:27;7.68;;;2.10;;
33403;SDS011;19751;40.274;18.268;2023-04-29T15:05:52;9.80;;;2.90;;